Aviation Digital Data Service (ADDS)

Output produced by METARs form (1823 UTC 25 September 2020)
found at http://www.aviationweather.gov/metar/data/
 
METAR text: NFNA 251800Z 00000KT 9999 BKN020 22/21 Q1017
Conditions at: NFNA (NAUSORI FIJI , FJ) observed 1800 UTC 25 September 2020
Temperature: 22.0°C (72°F)
Dewpoint: 21.0°C (70°F) [RH = 94%]
Pressure (altimeter): 30.03 inches Hg (1017.0 mb)
Winds: calm
Visibility: 6 or more miles (10+ km)
Ceiling: 2000 feet AGL
Clouds: broken clouds at 2000 feet AGL
Weather: no significant weather observed at this time

METAR text: NFNA 251700Z 14004KT 9999 BKN020 SCT045 23/21 Q1016
Conditions at: NFNA (NAUSORI FIJI , FJ) observed 1700 UTC 25 September 2020
Temperature: 23.0°C (73°F)
Dewpoint: 21.0°C (70°F) [RH = 89%]
Pressure (altimeter): 30.00 inches Hg (1016.0 mb)
Winds: from the SE (140 degrees) at 5 MPH (4 knots; 2.1 m/s)
Visibility: 6 or more miles (10+ km)
Ceiling: 2000 feet AGL
Clouds: broken clouds at 2000 feet AGL
scattered clouds at 4500 feet AGL
Weather: no significant weather observed at this time

METAR text: NFNA 251600Z 13003KT 9999 -SHRA BKN020 SCT045 23/21 Q1015
Conditions at: NFNA (NAUSORI FIJI , FJ) observed 1600 UTC 25 September 2020
Temperature: 23.0°C (73°F)
Dewpoint: 21.0°C (70°F) [RH = 89%]
Pressure (altimeter): 29.97 inches Hg (1015.0 mb)
Winds: from the SE (130 degrees) at 3 MPH (3 knots; 1.5 m/s)
Visibility: 6 or more miles (10+ km)
Ceiling: 2000 feet AGL
Clouds: broken clouds at 2000 feet AGL
scattered clouds at 4500 feet AGL
Weather: -SHRA  (light rain showers)

METAR text: NFNA 251500Z 16004KT 9999 -SHRA BKN020 SCT045 23/21 Q1015
Conditions at: NFNA (NAUSORI FIJI , FJ) observed 1500 UTC 25 September 2020
Temperature: 23.0°C (73°F)
Dewpoint: 21.0°C (70°F) [RH = 89%]
Pressure (altimeter): 29.97 inches Hg (1015.0 mb)
Winds: from the SSE (160 degrees) at 5 MPH (4 knots; 2.1 m/s)
Visibility: 6 or more miles (10+ km)
Ceiling: 2000 feet AGL
Clouds: broken clouds at 2000 feet AGL
scattered clouds at 4500 feet AGL
Weather: -SHRA  (light rain showers)

METAR text: NFNA 251400Z 00000KT 9999 FEW022 22/21 Q1016
Conditions at: NFNA (NAUSORI FIJI , FJ) observed 1400 UTC 25 September 2020
Temperature: 22.0°C (72°F)
Dewpoint: 21.0°C (70°F) [RH = 94%]
Pressure (altimeter): 30.00 inches Hg (1016.0 mb)
Winds: calm
Visibility: 6 or more miles (10+ km)
Ceiling: at least 12,000 feet AGL
Clouds: few clouds at 2200 feet AGL
Weather: no significant weather observed at this time

METAR text: NFNA 251300Z 00000KT 9999 FEW022 23/22 Q1016
Conditions at: NFNA (NAUSORI FIJI , FJ) observed 1300 UTC 25 September 2020
Temperature: 23.0°C (73°F)
Dewpoint: 22.0°C (72°F) [RH = 94%]
Pressure (altimeter): 30.00 inches Hg (1016.0 mb)
Winds: calm
Visibility: 6 or more miles (10+ km)
Ceiling: at least 12,000 feet AGL
Clouds: few clouds at 2200 feet AGL
Weather: no significant weather observed at this time

METAR text: NFNA 251200Z 12003KT 9999 FEW022 24/21 Q1017
Conditions at: NFNA (NAUSORI FIJI , FJ) observed 1200 UTC 25 September 2020
Temperature: 24.0°C (75°F)
Dewpoint: 21.0°C (70°F) [RH = 83%]
Pressure (altimeter): 30.03 inches Hg (1017.0 mb)
Winds: from the ESE (120 degrees) at 3 MPH (3 knots; 1.5 m/s)
Visibility: 6 or more miles (10+ km)
Ceiling: at least 12,000 feet AGL
Clouds: few clouds at 2200 feet AGL
Weather: no significant weather observed at this time

METAR text: NFNA 251100Z 11004KT 9999 FEW022 24/21 Q1017
Conditions at: NFNA (NAUSORI FIJI , FJ) observed 1100 UTC 25 September 2020
Temperature: 24.0°C (75°F)
Dewpoint: 21.0°C (70°F) [RH = 83%]
Pressure (altimeter): 30.03 inches Hg (1017.0 mb)
Winds: from the ESE (110 degrees) at 5 MPH (4 knots; 2.1 m/s)
Visibility: 6 or more miles (10+ km)
Ceiling: at least 12,000 feet AGL
Clouds: few clouds at 2200 feet AGL
Weather: no significant weather observed at this time

METAR text: NFNA 251000Z 11003KT 9999 FEW022 24/22 Q1017
Conditions at: NFNA (NAUSORI FIJI , FJ) observed 1000 UTC 25 September 2020
Temperature: 24.0°C (75°F)
Dewpoint: 22.0°C (72°F) [RH = 89%]
Pressure (altimeter): 30.03 inches Hg (1017.0 mb)
Winds: from the ESE (110 degrees) at 3 MPH (3 knots; 1.5 m/s)
Visibility: 6 or more miles (10+ km)
Ceiling: at least 12,000 feet AGL
Clouds: few clouds at 2200 feet AGL
Weather: no significant weather observed at this time

METAR text: NFNA 250900Z 12003KT 9999 FEW025 24/22 Q1017
Conditions at: NFNA (NAUSORI FIJI , FJ) observed 0900 UTC 25 September 2020
Temperature: 24.0°C (75°F)
Dewpoint: 22.0°C (72°F) [RH = 89%]
Pressure (altimeter): 30.03 inches Hg (1017.0 mb)
Winds: from the ESE (120 degrees) at 3 MPH (3 knots; 1.5 m/s)
Visibility: 6 or more miles (10+ km)
Ceiling: at least 12,000 feet AGL
Clouds: few clouds at 2500 feet AGL
Weather: no significant weather observed at this time

METAR text: NFNA 250800Z 11003KT 9999 FEW025 24/22 Q1016
Conditions at: NFNA (NAUSORI FIJI , FJ) observed 0800 UTC 25 September 2020
Temperature: 24.0°C (75°F)
Dewpoint: 22.0°C (72°F) [RH = 89%]
Pressure (altimeter): 30.00 inches Hg (1016.0 mb)
Winds: from the ESE (110 degrees) at 3 MPH (3 knots; 1.5 m/s)
Visibility: 6 or more miles (10+ km)
Ceiling: at least 12,000 feet AGL
Clouds: few clouds at 2500 feet AGL
Weather: no significant weather observed at this time

METAR text: NFNA 250700Z 11005KT 9999 FEW025 25/22 Q1016
Conditions at: NFNA (NAUSORI FIJI , FJ) observed 0700 UTC 25 September 2020
Temperature: 25.0°C (77°F)
Dewpoint: 22.0°C (72°F) [RH = 83%]
Pressure (altimeter): 30.00 inches Hg (1016.0 mb)
Winds: from the ESE (110 degrees) at 6 MPH (5 knots; 2.6 m/s)
Visibility: 6 or more miles (10+ km)
Ceiling: at least 12,000 feet AGL
Clouds: few clouds at 2500 feet AGL
Weather: no significant weather observed at this time

METAR text: NFNA 250600Z 11008KT 9999 FEW025 26/22 Q1015
Conditions at: NFNA (NAUSORI FIJI , FJ) observed 0600 UTC 25 September 2020
Temperature: 26.0°C (79°F)
Dewpoint: 22.0°C (72°F) [RH = 79%]
Pressure (altimeter): 29.97 inches Hg (1015.0 mb)
Winds: from the ESE (110 degrees) at 9 MPH (8 knots; 4.1 m/s)
Visibility: 6 or more miles (10+ km)
Ceiling: at least 12,000 feet AGL
Clouds: few clouds at 2500 feet AGL
Weather: no significant weather observed at this time

METAR text: NFNA 250500Z 11010KT 9999 BKN025 26/22 Q1015
Conditions at: NFNA (NAUSORI FIJI , FJ) observed 0500 UTC 25 September 2020
Temperature: 26.0°C (79°F)
Dewpoint: 22.0°C (72°F) [RH = 79%]
Pressure (altimeter): 29.97 inches Hg (1015.0 mb)
Winds: from the ESE (110 degrees) at 12 MPH (10 knots; 5.1 m/s)
Visibility: 6 or more miles (10+ km)
Ceiling: 2500 feet AGL
Clouds: broken clouds at 2500 feet AGL
Weather: no significant weather observed at this time

METAR text: NFNA 250400Z 11010KT 9999 BKN025 27/22 Q1014
Conditions at: NFNA (NAUSORI FIJI , FJ) observed 0400 UTC 25 September 2020
Temperature: 27.0°C (81°F)
Dewpoint: 22.0°C (72°F) [RH = 74%]
Pressure (altimeter): 29.94 inches Hg (1014.0 mb)
Winds: from the ESE (110 degrees) at 12 MPH (10 knots; 5.1 m/s)
Visibility: 6 or more miles (10+ km)
Ceiling: 2500 feet AGL
Clouds: broken clouds at 2500 feet AGL
Weather: no significant weather observed at this time

METAR text: NFNA 250300Z 12010KT 9999 BKN025 28/23 Q1014
Conditions at: NFNA (NAUSORI FIJI , FJ) observed 0300 UTC 25 September 2020
Temperature: 28.0°C (82°F)
Dewpoint: 23.0°C (73°F) [RH = 74%]
Pressure (altimeter): 29.94 inches Hg (1014.0 mb)
Winds: from the ESE (120 degrees) at 12 MPH (10 knots; 5.1 m/s)
Visibility: 6 or more miles (10+ km)
Ceiling: 2500 feet AGL
Clouds: broken clouds at 2500 feet AGL
Weather: no significant weather observed at this time

METAR text: NFNA 250200Z 10011KT 9999 BKN025 28/22 Q1015
Conditions at: NFNA (NAUSORI FIJI , FJ) observed 0200 UTC 25 September 2020
Temperature: 28.0°C (82°F)
Dewpoint: 22.0°C (72°F) [RH = 70%]
Pressure (altimeter): 29.97 inches Hg (1015.0 mb)
Winds: from the E (100 degrees) at 13 MPH (11 knots; 5.7 m/s)
Visibility: 6 or more miles (10+ km)
Ceiling: 2500 feet AGL
Clouds: broken clouds at 2500 feet AGL
Weather: no significant weather observed at this time

METAR text: NFNA 250100Z 07008KT 9999 BKN025 SCT048 27/22 Q1016
Conditions at: NFNA (NAUSORI FIJI , FJ) observed 0100 UTC 25 September 2020
Temperature: 27.0°C (81°F)
Dewpoint: 22.0°C (72°F) [RH = 74%]
Pressure (altimeter): 30.00 inches Hg (1016.0 mb)
Winds: from the ENE (70 degrees) at 9 MPH (8 knots; 4.1 m/s)
Visibility: 6 or more miles (10+ km)
Ceiling: 2500 feet AGL
Clouds: broken clouds at 2500 feet AGL
scattered clouds at 4800 feet AGL
Weather: no significant weather observed at this time

METAR text: NFNA 250000Z 08009KT 9999 -DZ SCT025 BKN050 28/22 Q1016
Conditions at: NFNA (NAUSORI FIJI , FJ) observed 0000 UTC 25 September 2020
Temperature: 28.0°C (82°F)
Dewpoint: 22.0°C (72°F) [RH = 70%]
Pressure (altimeter): 30.00 inches Hg (1016.0 mb)
Winds: from the E (80 degrees) at 10 MPH (9 knots; 4.6 m/s)
Visibility: 6 or more miles (10+ km)
Ceiling: 5000 feet AGL
Clouds: scattered clouds at 2500 feet AGL
broken clouds at 5000 feet AGL
Weather: -DZ  (light drizzle)

METAR text: NFNA 242300Z 10010KT 9999 FEW025 BKN050 27/22 Q1017
Conditions at: NFNA (NAUSORI FIJI , FJ) observed 2300 UTC 24 September 2020
Temperature: 27.0°C (81°F)
Dewpoint: 22.0°C (72°F) [RH = 74%]
Pressure (altimeter): 30.03 inches Hg (1017.0 mb)
Winds: from the E (100 degrees) at 12 MPH (10 knots; 5.1 m/s)
Visibility: 6 or more miles (10+ km)
Ceiling: 5000 feet AGL
Clouds: few clouds at 2500 feet AGL
broken clouds at 5000 feet AGL
Weather: no significant weather observed at this time

METAR text: NFNA 242200Z 10009KT 9999 FEW025 BKN050 27/23 Q1017
Conditions at: NFNA (NAUSORI FIJI , FJ) observed 2200 UTC 24 September 2020
Temperature: 27.0°C (81°F)
Dewpoint: 23.0°C (73°F) [RH = 79%]
Pressure (altimeter): 30.03 inches Hg (1017.0 mb)
Winds: from the E (100 degrees) at 10 MPH (9 knots; 4.6 m/s)
Visibility: 6 or more miles (10+ km)
Ceiling: 5000 feet AGL
Clouds: few clouds at 2500 feet AGL
broken clouds at 5000 feet AGL
Weather: no significant weather observed at this time

METAR text: NFNA 242100Z 09008KT 9999 SCT020 BKN050 25/22 Q1017
Conditions at: NFNA (NAUSORI FIJI , FJ) observed 2100 UTC 24 September 2020
Temperature: 25.0°C (77°F)
Dewpoint: 22.0°C (72°F) [RH = 83%]
Pressure (altimeter): 30.03 inches Hg (1017.0 mb)
Winds: from the E (90 degrees) at 9 MPH (8 knots; 4.1 m/s)
Visibility: 6 or more miles (10+ km)
Ceiling: 5000 feet AGL
Clouds: scattered clouds at 2000 feet AGL
broken clouds at 5000 feet AGL
Weather: no significant weather observed at this time

METAR text: NFNA 242000Z 08008KT 9999 BKN020 25/22 Q1017
Conditions at: NFNA (NAUSORI FIJI , FJ) observed 2000 UTC 24 September 2020
Temperature: 25.0°C (77°F)
Dewpoint: 22.0°C (72°F) [RH = 83%]
Pressure (altimeter): 30.03 inches Hg (1017.0 mb)
Winds: from the E (80 degrees) at 9 MPH (8 knots; 4.1 m/s)
Visibility: 6 or more miles (10+ km)
Ceiling: 2000 feet AGL
Clouds: broken clouds at 2000 feet AGL
Weather: no significant weather observed at this time

METAR text: NFNA 241900Z VRB02KT 9999 FEW018 SCT045 23/22 Q1017
Conditions at: NFNA (NAUSORI FIJI , FJ) observed 1900 UTC 24 September 2020
Temperature: 23.0°C (73°F)
Dewpoint: 22.0°C (72°F) [RH = 94%]
Pressure (altimeter): 30.03 inches Hg (1017.0 mb)
Winds: variable direction winds at 2 MPH (2 knots; 1.0 m/s)
Visibility: 6 or more miles (10+ km)
Ceiling: at least 12,000 feet AGL
Clouds: few clouds at 1800 feet AGL
scattered clouds at 4500 feet AGL
Weather: no significant weather observed at this time

METAR text: NFNA 241800Z VRB02KT 9999 SCT018 BKN042 22/22 Q1016
Conditions at: NFNA (NAUSORI FIJI , FJ) observed 1800 UTC 24 September 2020
Temperature: 22.0°C (72°F)
Dewpoint: 22.0°C (72°F) [RH = 100%]
Pressure (altimeter): 30.00 inches Hg (1016.0 mb)
Winds: variable direction winds at 2 MPH (2 knots; 1.0 m/s)
Visibility: 6 or more miles (10+ km)
Ceiling: 4200 feet AGL
Clouds: scattered clouds at 1800 feet AGL
broken clouds at 4200 feet AGL
Weather: no significant weather observed at this time

METAR text: NFNA 241700Z 10005KT 9999 -SHRA BKN018 BKN042 23/22 Q1015
Conditions at: NFNA (NAUSORI FIJI , FJ) observed 1700 UTC 24 September 2020
Temperature: 23.0°C (73°F)
Dewpoint: 22.0°C (72°F) [RH = 94%]
Pressure (altimeter): 29.97 inches Hg (1015.0 mb)
Winds: from the E (100 degrees) at 6 MPH (5 knots; 2.6 m/s)
Visibility: 6 or more miles (10+ km)
Ceiling: 1800 feet AGL
Clouds: broken clouds at 1800 feet AGL
broken clouds at 4200 feet AGL
Weather: -SHRA  (light rain showers)

METAR text: NFNA 241600Z 00000KT 9999 BKN018 BKN045 23/22 Q1015
Conditions at: NFNA (NAUSORI FIJI , FJ) observed 1600 UTC 24 September 2020
Temperature: 23.0°C (73°F)
Dewpoint: 22.0°C (72°F) [RH = 94%]
Pressure (altimeter): 29.97 inches Hg (1015.0 mb)
Winds: calm
Visibility: 6 or more miles (10+ km)
Ceiling: 1800 feet AGL
Clouds: broken clouds at 1800 feet AGL
broken clouds at 4500 feet AGL
Weather: no significant weather observed at this time

METAR text: NFNA 241500Z 05008KT 9999 BKN018 BKN045 23/22 Q1015
Conditions at: NFNA (NAUSORI FIJI , FJ) observed 1500 UTC 24 September 2020
Temperature: 23.0°C (73°F)
Dewpoint: 22.0°C (72°F) [RH = 94%]
Pressure (altimeter): 29.97 inches Hg (1015.0 mb)
Winds: from the NE (50 degrees) at 9 MPH (8 knots; 4.1 m/s)
Visibility: 6 or more miles (10+ km)
Ceiling: 1800 feet AGL
Clouds: broken clouds at 1800 feet AGL
broken clouds at 4500 feet AGL
Weather: no significant weather observed at this time

METAR text: NFNA 241400Z 00000KT 9999 SCT018 SCT045 23/22 Q1015
Conditions at: NFNA (NAUSORI FIJI , FJ) observed 1400 UTC 24 September 2020
Temperature: 23.0°C (73°F)
Dewpoint: 22.0°C (72°F) [RH = 94%]
Pressure (altimeter): 29.97 inches Hg (1015.0 mb)
Winds: calm
Visibility: 6 or more miles (10+ km)
Ceiling: at least 12,000 feet AGL
Clouds: scattered clouds at 1800 feet AGL
scattered clouds at 4500 feet AGL
Weather: no significant weather observed at this time

METAR text: NFNA 241300Z 09006KT 9999 SCT018 SCT045 23/22 Q1015
Conditions at: NFNA (NAUSORI FIJI , FJ) observed 1300 UTC 24 September 2020
Temperature: 23.0°C (73°F)
Dewpoint: 22.0°C (72°F) [RH = 94%]
Pressure (altimeter): 29.97 inches Hg (1015.0 mb)
Winds: from the E (90 degrees) at 7 MPH (6 knots; 3.1 m/s)
Visibility: 6 or more miles (10+ km)
Ceiling: at least 12,000 feet AGL
Clouds: scattered clouds at 1800 feet AGL
scattered clouds at 4500 feet AGL
Weather: no significant weather observed at this time

METAR text: NFNA 241200Z 11005KT 9999 SCT018 SCT045 23/22 Q1016
Conditions at: NFNA (NAUSORI FIJI , FJ) observed 1200 UTC 24 September 2020
Temperature: 23.0°C (73°F)
Dewpoint: 22.0°C (72°F) [RH = 94%]
Pressure (altimeter): 30.00 inches Hg (1016.0 mb)
Winds: from the ESE (110 degrees) at 6 MPH (5 knots; 2.6 m/s)
Visibility: 6 or more miles (10+ km)
Ceiling: at least 12,000 feet AGL
Clouds: scattered clouds at 1800 feet AGL
scattered clouds at 4500 feet AGL
Weather: no significant weather observed at this time

METAR text: NFNA 241100Z 00000KT 9999 BKN020 BKN045 22/22 Q1016
Conditions at: NFNA (NAUSORI FIJI , FJ) observed 1100 UTC 24 September 2020
Temperature: 22.0°C (72°F)
Dewpoint: 22.0°C (72°F) [RH = 100%]
Pressure (altimeter): 30.00 inches Hg (1016.0 mb)
Winds: calm
Visibility: 6 or more miles (10+ km)
Ceiling: 2000 feet AGL
Clouds: broken clouds at 2000 feet AGL
broken clouds at 4500 feet AGL
Weather: no significant weather observed at this time

METAR text: NFNA 241000Z 13003KT 9999 BKN020 BKN045 22/21 Q1016
Conditions at: NFNA (NAUSORI FIJI , FJ) observed 1000 UTC 24 September 2020
Temperature: 22.0°C (72°F)
Dewpoint: 21.0°C (70°F) [RH = 94%]
Pressure (altimeter): 30.00 inches Hg (1016.0 mb)
Winds: from the SE (130 degrees) at 3 MPH (3 knots; 1.5 m/s)
Visibility: 6 or more miles (10+ km)
Ceiling: 2000 feet AGL
Clouds: broken clouds at 2000 feet AGL
broken clouds at 4500 feet AGL
Weather: no significant weather observed at this time

METAR text: NFNA 240900Z 09008KT 9999 -SHRA BKN020 BKN045 23/22 Q1016
Conditions at: NFNA (NAUSORI FIJI , FJ) observed 0900 UTC 24 September 2020
Temperature: 23.0°C (73°F)
Dewpoint: 22.0°C (72°F) [RH = 94%]
Pressure (altimeter): 30.00 inches Hg (1016.0 mb)
Winds: from the E (90 degrees) at 9 MPH (8 knots; 4.1 m/s)
Visibility: 6 or more miles (10+ km)
Ceiling: 2000 feet AGL
Clouds: broken clouds at 2000 feet AGL
broken clouds at 4500 feet AGL
Weather: -SHRA  (light rain showers)

METAR text: NFNA 240800Z 11009KT 9999 FEW020 BKN045 25/21 Q1015
Conditions at: NFNA (NAUSORI FIJI , FJ) observed 0800 UTC 24 September 2020
Temperature: 25.0°C (77°F)
Dewpoint: 21.0°C (70°F) [RH = 79%]
Pressure (altimeter): 29.97 inches Hg (1015.0 mb)
Winds: from the ESE (110 degrees) at 10 MPH (9 knots; 4.6 m/s)
Visibility: 6 or more miles (10+ km)
Ceiling: 4500 feet AGL
Clouds: few clouds at 2000 feet AGL
broken clouds at 4500 feet AGL
Weather: no significant weather observed at this time

METAR text: NFNA 240700Z 12007KT 9999 SCT020 BKN045 25/22 Q1014
Conditions at: NFNA (NAUSORI FIJI , FJ) observed 0700 UTC 24 September 2020
Temperature: 25.0°C (77°F)
Dewpoint: 22.0°C (72°F) [RH = 83%]
Pressure (altimeter): 29.94 inches Hg (1014.0 mb)
Winds: from the ESE (120 degrees) at 8 MPH (7 knots; 3.6 m/s)
Visibility: 6 or more miles (10+ km)
Ceiling: 4500 feet AGL
Clouds: scattered clouds at 2000 feet AGL
broken clouds at 4500 feet AGL
Weather: no significant weather observed at this time

Forecast for: NFNA (NAUSORI FIJI , FJ)
Text: TAF NFNA 251710Z 2518/2618 11009KT 9999 BKN020 BKN045
Forecast period: 1800 UTC 25 September 2020 to 1800 UTC 26 September 2020
Forecast type: FROM: standard forecast or significant change
Winds: from the ESE (110 degrees) at 10 MPH (9 knots; 4.6 m/s)
Visibility: 6 or more miles (10+ km)
Ceiling: 2000 feet AGL
Clouds: broken clouds at 2000 feet AGL
broken clouds at 4500 feet AGL
Weather: no significant weather forecast for this period
Text: PROB30
Forecast period: 0000 to 0600 UTC 26 September 2020
Forecast type: TEMPORARY: The following changes expected for less than half the time period
Visibility: 3 miles (5 km)
Ceiling: 1500 feet AGL
Clouds: broken clouds at 1500 feet AGL
Weather: SHRA  (rain showers)